sensor_id;sensor_type;location;lat;lon;timestamp;pressure;altitude;pressure_sealevel;temperature;humidity
20455;BME280;10386;54.314;10.022;2024-01-16T00:01:42;100599.25;;;-2.20;100.00
20455;BME280;10386;54.314;10.022;2024-01-16T00:04:10;100583.25;;;-2.19;100.00
20455;BME280;10386;54.314;10.022;2024-01-16T00:06:41;100587.94;;;-2.28;100.00
20455;BME280;10386;54.314;10.022;2024-01-16T00:09:12;100594.84;;;-2.21;100.00
20455;BME280;10386;54.314;10.022;2024-01-16T00:11:40;100596.13;;;-2.37;100.00
20455;BME280;10386;54.314;10.022;2024-01-16T00:14:09;100592.63;;;-2.39;100.00
20455;BME280;10386;54.314;10.022;2024-01-16T00:16:45;100594.66;;;-2.50;100.00
20455;BME280;10386;54.314;10.022;2024-01-16T00:19:13;100598.19;;;-2.50;100.00
20455;BME280;10386;54.314;10.022;2024-01-16T00:21:44;100604.13;;;-2.39;100.00
20455;BME280;10386;54.314;10.022;2024-01-16T00:24:14;100613.81;;;-2.36;100.00
20455;BME280;10386;54.314;10.022;2024-01-16T00:26:41;100617.72;;;-2.52;100.00
20455;BME280;10386;54.314;10.022;2024-01-16T00:29:08;100614.94;;;-2.46;100.00
20455;BME280;10386;54.314;10.022;2024-01-16T00:31:39;100600.75;;;-2.45;100.00
20455;BME280;10386;54.314;10.022;2024-01-16T00:34:06;100606.38;;;-2.60;100.00
20455;BME280;10386;54.314;10.022;2024-01-16T00:36:33;100604.63;;;-2.61;100.00
20455;BME280;10386;54.314;10.022;2024-01-16T00:39:00;100609.34;;;-2.73;100.00
20455;BME280;10386;54.314;10.022;2024-01-16T00:41:27;100616.50;;;-2.77;100.00
20455;BME280;10386;54.314;10.022;2024-01-16T00:43:54;100611.06;;;-2.71;100.00
20455;BME280;10386;54.314;10.022;2024-01-16T00:46:21;100613.88;;;-2.78;100.00
20455;BME280;10386;54.314;10.022;2024-01-16T00:48:48;100611.31;;;-2.83;100.00
20455;BME280;10386;54.314;10.022;2024-01-16T00:51:15;100614.94;;;-2.87;100.00
20455;BME280;10386;54.314;10.022;2024-01-16T00:53:43;100609.63;;;-2.85;100.00
20455;BME280;10386;54.314;10.022;2024-01-16T00:56:10;100608.97;;;-2.98;100.00
20455;BME280;10386;54.314;10.022;2024-01-16T00:58:38;100610.59;;;-2.91;100.00
20455;BME280;10386;54.314;10.022;2024-01-16T01:01:05;100609.81;;;-2.96;100.00
20455;BME280;10386;54.314;10.022;2024-01-16T01:03:32;100613.31;;;-2.92;100.00
20455;BME280;10386;54.314;10.022;2024-01-16T01:06:00;100618.88;;;-3.06;100.00
20455;BME280;10386;54.314;10.022;2024-01-16T01:08:27;100621.34;;;-2.95;100.00
20455;BME280;10386;54.314;10.022;2024-01-16T01:10:54;100622.19;;;-2.95;100.00
20455;BME280;10386;54.314;10.022;2024-01-16T01:13:22;100634.41;;;-2.86;100.00
20455;BME280;10386;54.314;10.022;2024-01-16T01:15:49;100629.72;;;-2.74;100.00
20455;BME280;10386;54.314;10.022;2024-01-16T01:18:15;100616.63;;;-2.83;100.00
20455;BME280;10386;54.314;10.022;2024-01-16T01:20:42;100614.16;;;-2.92;100.00
20455;BME280;10386;54.314;10.022;2024-01-16T01:23:09;100608.06;;;-2.95;100.00
20455;BME280;10386;54.314;10.022;2024-01-16T01:25:36;100606.25;;;-2.93;100.00
20455;BME280;10386;54.314;10.022;2024-01-16T01:28:04;100597.00;;;-2.76;100.00
20455;BME280;10386;54.314;10.022;2024-01-16T01:30:31;100589.53;;;-2.59;100.00
20455;BME280;10386;54.314;10.022;2024-01-16T01:32:58;100586.78;;;-2.56;100.00
20455;BME280;10386;54.314;10.022;2024-01-16T01:35:25;100583.31;;;-2.58;100.00
20455;BME280;10386;54.314;10.022;2024-01-16T01:37:52;100572.03;;;-2.69;100.00
20455;BME280;10386;54.314;10.022;2024-01-16T01:40:19;100564.53;;;-2.49;100.00
20455;BME280;10386;54.314;10.022;2024-01-16T01:42:46;100571.59;;;-2.50;100.00
20455;BME280;10386;54.314;10.022;2024-01-16T01:45:13;100570.81;;;-2.53;100.00
20455;BME280;10386;54.314;10.022;2024-01-16T01:47:40;100567.38;;;-2.58;100.00
20455;BME280;10386;54.314;10.022;2024-01-16T01:50:11;100556.63;;;-2.52;100.00
20455;BME280;10386;54.314;10.022;2024-01-16T01:52:40;100544.88;;;-2.44;100.00
20455;BME280;10386;54.314;10.022;2024-01-16T01:55:11;100535.78;;;-2.34;100.00
20455;BME280;10386;54.314;10.022;2024-01-16T01:57:40;100546.41;;;-2.32;100.00
20455;BME280;10386;54.314;10.022;2024-01-16T02:00:10;100563.94;;;-2.63;100.00
20455;BME280;10386;54.314;10.022;2024-01-16T02:02:38;100583.06;;;-2.87;100.00
20455;BME280;10386;54.314;10.022;2024-01-16T02:05:07;100600.19;;;-3.00;100.00
20455;BME280;10386;54.314;10.022;2024-01-16T02:07:34;100608.97;;;-2.98;100.00
20455;BME280;10386;54.314;10.022;2024-01-16T02:10:01;100598.31;;;-2.95;100.00
20455;BME280;10386;54.314;10.022;2024-01-16T02:12:28;100601.78;;;-2.91;100.00
20455;BME280;10386;54.314;10.022;2024-01-16T02:14:55;100595.84;;;-3.04;100.00
20455;BME280;10386;54.314;10.022;2024-01-16T02:17:22;100600.31;;;-3.06;100.00
20455;BME280;10386;54.314;10.022;2024-01-16T02:19:48;100601.22;;;-3.08;100.00
20455;BME280;10386;54.314;10.022;2024-01-16T02:22:19;100615.56;;;-3.17;100.00
20455;BME280;10386;54.314;10.022;2024-01-16T02:24:48;100621.44;;;-3.01;100.00
20455;BME280;10386;54.314;10.022;2024-01-16T02:27:15;100685.09;;;-2.98;100.00
20455;BME280;10386;54.314;10.022;2024-01-16T02:29:43;100682.44;;;-2.98;100.00
20455;BME280;10386;54.314;10.022;2024-01-16T02:32:13;100687.06;;;-3.09;100.00
20455;BME280;10386;54.314;10.022;2024-01-16T02:34:40;100677.56;;;-3.21;100.00
20455;BME280;10386;54.314;10.022;2024-01-16T02:37:08;100680.06;;;-3.12;100.00
20455;BME280;10386;54.314;10.022;2024-01-16T02:39:35;100691.63;;;-3.16;100.00
20455;BME280;10386;54.314;10.022;2024-01-16T02:42:02;100679.88;;;-3.03;100.00
20455;BME280;10386;54.314;10.022;2024-01-16T02:44:29;100685.97;;;-2.96;100.00
20455;BME280;10386;54.314;10.022;2024-01-16T02:46:56;100687.78;;;-3.00;100.00
20455;BME280;10386;54.314;10.022;2024-01-16T02:49:23;100692.44;;;-3.12;100.00
20455;BME280;10386;54.314;10.022;2024-01-16T02:51:52;100694.22;;;-3.13;100.00
20455;BME280;10386;54.314;10.022;2024-01-16T02:54:19;100693.09;;;-3.00;100.00
20455;BME280;10386;54.314;10.022;2024-01-16T02:56:46;100676.06;;;-2.90;100.00
20455;BME280;10386;54.314;10.022;2024-01-16T02:59:13;100678.72;;;-2.88;100.00
20455;BME280;10386;54.314;10.022;2024-01-16T03:01:40;100671.66;;;-2.91;100.00
20455;BME280;10386;54.314;10.022;2024-01-16T03:04:07;100679.81;;;-3.00;100.00
20455;BME280;10386;54.314;10.022;2024-01-16T03:06:33;100679.88;;;-3.03;100.00
20455;BME280;10386;54.314;10.022;2024-01-16T03:09:01;100680.06;;;-3.13;100.00
20455;BME280;10386;54.314;10.022;2024-01-16T03:11:27;100682.06;;;-3.24;100.00
20455;BME280;10386;54.314;10.022;2024-01-16T03:13:58;100687.25;;;-3.18;100.00
20455;BME280;10386;54.314;10.022;2024-01-16T03:16:25;100696.22;;;-3.24;100.00
20455;BME280;10386;54.314;10.022;2024-01-16T03:18:52;100689.50;;;-3.46;100.00
20455;BME280;10386;54.314;10.022;2024-01-16T03:21:18;100681.44;;;-3.38;100.00
20455;BME280;10386;54.314;10.022;2024-01-16T03:23:45;100684.31;;;-3.52;100.00
20455;BME280;10386;54.314;10.022;2024-01-16T03:26:13;100688.97;;;-3.66;100.00
20455;BME280;10386;54.314;10.022;2024-01-16T03:28:41;100690.97;;;-3.80;100.00
20455;BME280;10386;54.314;10.022;2024-01-16T03:31:07;100687.56;;;-3.88;100.00
20455;BME280;10386;54.314;10.022;2024-01-16T03:33:34;100687.63;;;-3.91;100.00
20455;BME280;10386;54.314;10.022;2024-01-16T03:36:02;100687.72;;;-3.97;100.00
20455;BME280;10386;54.314;10.022;2024-01-16T03:38:30;100691.38;;;-4.05;100.00
20455;BME280;10386;54.314;10.022;2024-01-16T03:40:57;100682.53;;;-4.04;100.00
20455;BME280;10386;54.314;10.022;2024-01-16T03:43:24;100678.22;;;-4.11;100.00
20455;BME280;10386;54.314;10.022;2024-01-16T03:45:51;100686.25;;;-4.15;100.00
20455;BME280;10386;54.314;10.022;2024-01-16T03:48:17;100686.53;;;-4.36;100.00
20455;BME280;10386;54.314;10.022;2024-01-16T03:50:44;100690.25;;;-4.48;100.00
20455;BME280;10386;54.314;10.022;2024-01-16T03:53:12;100700.72;;;-4.40;100.00
20455;BME280;10386;54.314;10.022;2024-01-16T03:55:39;100698.88;;;-4.34;100.00
20455;BME280;10386;54.314;10.022;2024-01-16T03:58:06;100690.00;;;-4.30;100.00
20455;BME280;10386;54.314;10.022;2024-01-16T04:00:38;100689.03;;;-4.26;100.00
20455;BME280;10386;54.314;10.022;2024-01-16T04:03:05;100690.66;;;-4.14;100.00
20455;BME280;10386;54.314;10.022;2024-01-16T04:05:33;100692.31;;;-4.07;100.00
20455;BME280;10386;54.314;10.022;2024-01-16T04:08:01;100687.00;;;-4.07;100.00
20455;BME280;10386;54.314;10.022;2024-01-16T04:10:30;100689.63;;;-4.06;100.00
20455;BME280;10386;54.314;10.022;2024-01-16T04:13:00;100696.00;;;-4.17;100.00
20455;BME280;10386;54.314;10.022;2024-01-16T04:15:27;100694.84;;;-4.00;100.00
20455;BME280;10386;54.314;10.022;2024-01-16T04:17:54;100691.03;;;-3.84;100.00
20455;BME280;10386;54.314;10.022;2024-01-16T04:20:21;100688.22;;;-3.74;100.00
20455;BME280;10386;54.314;10.022;2024-01-16T04:22:48;100676.78;;;-3.76;100.00
20455;BME280;10386;54.314;10.022;2024-01-16T04:25:15;100677.72;;;-3.80;100.00
20455;BME280;10386;54.314;10.022;2024-01-16T04:27:42;100677.88;;;-3.89;100.00
20455;BME280;10386;54.314;10.022;2024-01-16T04:30:09;100681.22;;;-3.78;100.00
20455;BME280;10386;54.314;10.022;2024-01-16T04:32:36;100677.56;;;-3.71;100.00
20455;BME280;10386;54.314;10.022;2024-01-16T04:35:03;100684.63;;;-3.70;100.00
20455;BME280;10386;54.314;10.022;2024-01-16T04:37:30;100670.25;;;-3.57;100.00
20455;BME280;10386;54.314;10.022;2024-01-16T04:39:57;100679.00;;;-3.52;100.00
20455;BME280;10386;54.314;10.022;2024-01-16T04:42:25;100686.97;;;-3.52;100.00
20455;BME280;10386;54.314;10.022;2024-01-16T04:44:52;100693.94;;;-3.46;100.00
20455;BME280;10386;54.314;10.022;2024-01-16T04:47:19;100686.84;;;-3.44;100.00
20455;BME280;10386;54.314;10.022;2024-01-16T04:49:46;100687.47;;;-3.30;100.00
20455;BME280;10386;54.314;10.022;2024-01-16T04:52:13;100683.69;;;-3.17;100.00
20455;BME280;10386;54.314;10.022;2024-01-16T04:54:40;100673.84;;;-3.12;100.00
20455;BME280;10386;54.314;10.022;2024-01-16T04:57:07;100662.31;;;-3.10;100.00
20455;BME280;10386;54.314;10.022;2024-01-16T04:59:34;100661.78;;;-3.27;100.00
20455;BME280;10386;54.314;10.022;2024-01-16T05:02:01;100661.78;;;-3.28;100.00
20455;BME280;10386;54.314;10.022;2024-01-16T05:04:27;100664.66;;;-3.39;100.00
20455;BME280;10386;54.314;10.022;2024-01-16T05:06:54;100669.19;;;-3.47;100.00
20455;BME280;10386;54.314;10.022;2024-01-16T05:09:21;100685.16;;;-3.50;100.00
20455;BME280;10386;54.314;10.022;2024-01-16T05:11:48;100671.84;;;-3.47;100.00
20455;BME280;10386;54.314;10.022;2024-01-16T05:14:16;100672.56;;;-3.37;100.00
20455;BME280;10386;54.314;10.022;2024-01-16T05:16:43;100669.44;;;-3.12;100.00
20455;BME280;10386;54.314;10.022;2024-01-16T05:19:09;100666.69;;;-3.07;100.00
20455;BME280;10386;54.314;10.022;2024-01-16T05:21:36;100658.81;;;-3.12;100.00
20455;BME280;10386;54.314;10.022;2024-01-16T05:24:03;100656.84;;;-3.01;100.00
20455;BME280;10386;54.314;10.022;2024-01-16T05:26:31;100657.69;;;-3.00;100.00
20455;BME280;10386;54.314;10.022;2024-01-16T05:28:58;100658.88;;;-3.15;100.00
20455;BME280;10386;54.314;10.022;2024-01-16T05:31:25;100664.03;;;-3.07;100.00
20455;BME280;10386;54.314;10.022;2024-01-16T05:33:52;100648.81;;;-2.98;100.00
20455;BME280;10386;54.314;10.022;2024-01-16T05:36:19;100655.59;;;-2.83;100.00
20455;BME280;10386;54.314;10.022;2024-01-16T05:38:47;100644.09;;;-2.84;100.00
20455;BME280;10386;54.314;10.022;2024-01-16T05:41:14;100644.13;;;-2.85;100.00
20455;BME280;10386;54.314;10.022;2024-01-16T05:43:41;100631.81;;;-2.89;100.00
20455;BME280;10386;54.314;10.022;2024-01-16T05:46:10;100623.63;;;-2.79;100.00
20455;BME280;10386;54.314;10.022;2024-01-16T05:48:37;100626.25;;;-2.77;100.00
20455;BME280;10386;54.314;10.022;2024-01-16T05:51:04;100627.81;;;-2.69;100.00
20455;BME280;10386;54.314;10.022;2024-01-16T05:53:31;100620.13;;;-2.81;100.00
20455;BME280;10386;54.314;10.022;2024-01-16T05:55:58;100616.16;;;-2.61;100.00
20455;BME280;10386;54.314;10.022;2024-01-16T05:58:25;100606.50;;;-2.66;100.00
20455;BME280;10386;54.314;10.022;2024-01-16T06:00:52;100613.44;;;-2.59;100.00
20455;BME280;10386;54.314;10.022;2024-01-16T06:03:20;100604.53;;;-2.57;100.00
20455;BME280;10386;54.314;10.022;2024-01-16T06:05:47;100606.41;;;-2.62;100.00
20455;BME280;10386;54.314;10.022;2024-01-16T06:08:14;100608.19;;;-2.62;100.00
20455;BME280;10386;54.314;10.022;2024-01-16T06:10:41;100612.50;;;-2.57;100.00
20455;BME280;10386;54.314;10.022;2024-01-16T06:13:07;100608.84;;;-2.51;100.00
20455;BME280;10386;54.314;10.022;2024-01-16T06:15:34;100614.25;;;-2.56;100.00
20455;BME280;10386;54.314;10.022;2024-01-16T06:18:01;100611.63;;;-2.57;100.00
20455;BME280;10386;54.314;10.022;2024-01-16T06:20:29;100615.91;;;-2.50;100.00
20455;BME280;10386;54.314;10.022;2024-01-16T06:22:57;100620.31;;;-2.49;100.00
20455;BME280;10386;54.314;10.022;2024-01-16T06:25:24;100622.94;;;-2.48;100.00
20455;BME280;10386;54.314;10.022;2024-01-16T06:27:51;100625.72;;;-2.54;100.00
20455;BME280;10386;54.314;10.022;2024-01-16T06:30:19;100618.22;;;-2.35;100.00
20455;BME280;10386;54.314;10.022;2024-01-16T06:32:46;100620.81;;;-2.32;100.00
20455;BME280;10386;54.314;10.022;2024-01-16T06:35:15;100619.78;;;-2.27;100.00
20455;BME280;10386;54.314;10.022;2024-01-16T06:37:43;100615.44;;;-2.29;100.00
20455;BME280;10386;54.314;10.022;2024-01-16T06:40:10;100624.13;;;-2.23;100.00
20455;BME280;10386;54.314;10.022;2024-01-16T06:42:37;100619.69;;;-2.22;100.00
20455;BME280;10386;54.314;10.022;2024-01-16T06:45:04;100621.22;;;-2.12;100.00
20455;BME280;10386;54.314;10.022;2024-01-16T06:47:31;100619.75;;;-2.25;100.00
20455;BME280;10386;54.314;10.022;2024-01-16T06:49:59;100623.88;;;-2.12;100.00
20455;BME280;10386;54.314;10.022;2024-01-16T06:52:26;100609.44;;;-2.01;100.00
20455;BME280;10386;54.314;10.022;2024-01-16T06:54:52;100616.34;;;-1.94;100.00
20455;BME280;10386;54.314;10.022;2024-01-16T06:57:19;100615.66;;;-2.02;100.00
20455;BME280;10386;54.314;10.022;2024-01-16T06:59:46;100612.03;;;-1.99;100.00
20455;BME280;10386;54.314;10.022;2024-01-16T07:02:13;100618.78;;;-1.86;100.00
20455;BME280;10386;54.314;10.022;2024-01-16T07:04:40;100620.59;;;-1.87;100.00
20455;BME280;10386;54.314;10.022;2024-01-16T07:07:07;100629.19;;;-1.76;100.00
20455;BME280;10386;54.314;10.022;2024-01-16T07:09:34;100620.31;;;-1.76;100.00
20455;BME280;10386;54.314;10.022;2024-01-16T07:12:01;100617.19;;;-1.92;100.00
20455;BME280;10386;54.314;10.022;2024-01-16T07:14:28;100624.94;;;-1.83;100.00
20455;BME280;10386;54.314;10.022;2024-01-16T07:16:54;100617.97;;;-1.88;100.00
20455;BME280;10386;54.314;10.022;2024-01-16T07:19:21;100626.75;;;-1.85;100.00
20455;BME280;10386;54.314;10.022;2024-01-16T07:21:49;100624.88;;;-1.81;100.00
20455;BME280;10386;54.314;10.022;2024-01-16T07:24:15;100625.94;;;-1.88;100.00
20455;BME280;10386;54.314;10.022;2024-01-16T07:26:42;100626.59;;;-1.79;100.00
20455;BME280;10386;54.314;10.022;2024-01-16T07:29:09;100633.59;;;-1.75;100.00
20455;BME280;10386;54.314;10.022;2024-01-16T07:31:36;100630.88;;;-1.73;100.00
20455;BME280;10386;54.314;10.022;2024-01-16T07:34:03;100629.00;;;-1.68;100.00
20455;BME280;10386;54.314;10.022;2024-01-16T07:36:30;100630.44;;;-1.57;100.00
20455;BME280;10386;54.314;10.022;2024-01-16T07:38:57;100632.41;;;-1.63;100.00
20455;BME280;10386;54.314;10.022;2024-01-16T07:41:24;100629.69;;;-1.62;100.00
20455;BME280;10386;54.314;10.022;2024-01-16T07:43:51;100629.69;;;-1.62;100.00
20455;BME280;10386;54.314;10.022;2024-01-16T07:46:17;100634.19;;;-1.64;100.00
20455;BME280;10386;54.314;10.022;2024-01-16T07:48:44;100638.19;;;-1.46;100.00
20455;BME280;10386;54.314;10.022;2024-01-16T07:51:12;100640.25;;;-1.57;100.00
20455;BME280;10386;54.314;10.022;2024-01-16T07:53:39;100636.69;;;-1.58;100.00
20455;BME280;10386;54.314;10.022;2024-01-16T07:56:06;100635.69;;;-1.52;100.00
20455;BME280;10386;54.314;10.022;2024-01-16T07:58:33;100635.50;;;-1.46;100.00
20455;BME280;10386;54.314;10.022;2024-01-16T08:01:00;100640.84;;;-1.46;100.00
20455;BME280;10386;54.314;10.022;2024-01-16T08:03:27;100641.16;;;-1.25;100.00
20455;BME280;10386;54.314;10.022;2024-01-16T08:05:54;100635.94;;;-1.30;100.00
20455;BME280;10386;54.314;10.022;2024-01-16T08:08:22;100633.09;;;-1.24;100.00
20455;BME280;10386;54.314;10.022;2024-01-16T08:10:49;100629.44;;;-1.20;100.00
20455;BME280;10386;54.314;10.022;2024-01-16T08:13:16;100619.84;;;-1.25;100.00
20455;BME280;10386;54.314;10.022;2024-01-16T08:15:43;100622.63;;;-1.30;100.00
20455;BME280;10386;54.314;10.022;2024-01-16T08:18:10;100626.00;;;-1.23;100.00
20455;BME280;10386;54.314;10.022;2024-01-16T08:20:37;100626.66;;;-1.15;100.00
20455;BME280;10386;54.314;10.022;2024-01-16T08:23:04;100623.69;;;-1.05;100.00
20455;BME280;10386;54.314;10.022;2024-01-16T08:25:30;100619.25;;;-1.04;100.00
20455;BME280;10386;54.314;10.022;2024-01-16T08:27:57;100616.78;;;-1.12;100.00
20455;BME280;10386;54.314;10.022;2024-01-16T08:30:25;100625.78;;;-1.16;100.00
20455;BME280;10386;54.314;10.022;2024-01-16T08:32:52;100627.09;;;-1.00;100.00
20455;BME280;10386;54.314;10.022;2024-01-16T08:35:19;100621.00;;;-1.03;100.00
20455;BME280;10386;54.314;10.022;2024-01-16T08:37:47;100624.31;;;-0.95;100.00
20455;BME280;10386;54.314;10.022;2024-01-16T08:40:14;100627.72;;;-0.90;100.00
20455;BME280;10386;54.314;10.022;2024-01-16T08:42:42;100620.56;;;-0.88;100.00
20455;BME280;10386;54.314;10.022;2024-01-16T08:45:09;100608.78;;;-0.80;100.00
20455;BME280;10386;54.314;10.022;2024-01-16T08:47:36;100612.84;;;-0.67;100.00
20455;BME280;10386;54.314;10.022;2024-01-16T08:50:04;100605.38;;;-0.56;100.00
20455;BME280;10386;54.314;10.022;2024-01-16T08:52:31;100611.75;;;-0.61;100.00
20455;BME280;10386;54.314;10.022;2024-01-16T08:54:58;100605.78;;;-0.69;100.00
20455;BME280;10386;54.314;10.022;2024-01-16T08:57:25;100621.69;;;-0.66;100.00
20455;BME280;10386;54.314;10.022;2024-01-16T08:59:56;100618.34;;;-0.44;100.00
20455;BME280;10386;54.314;10.022;2024-01-16T09:02:23;100629.81;;;-0.42;100.00
20455;BME280;10386;54.314;10.022;2024-01-16T09:04:50;100628.97;;;-0.42;100.00
20455;BME280;10386;54.314;10.022;2024-01-16T09:07:18;100622.63;;;-0.38;100.00
20455;BME280;10386;54.314;10.022;2024-01-16T09:09:46;100617.19;;;-0.35;100.00
20455;BME280;10386;54.314;10.022;2024-01-16T09:12:12;100630.28;;;-0.28;100.00
20455;BME280;10386;54.314;10.022;2024-01-16T09:14:40;100630.81;;;-0.17;100.00
20455;BME280;10386;54.314;10.022;2024-01-16T09:17:08;100631.50;;;-0.10;100.00
20455;BME280;10386;54.314;10.022;2024-01-16T09:19:35;100631.22;;;-0.02;100.00
20455;BME280;10386;54.314;10.022;2024-01-16T09:22:02;100633.66;;;0.06;100.00
20455;BME280;10386;54.314;10.022;2024-01-16T09:24:30;100638.63;;;0.16;100.00
20455;BME280;10386;54.314;10.022;2024-01-16T09:26:57;100632.53;;;0.13;100.00
20455;BME280;10386;54.314;10.022;2024-01-16T09:29:24;100622.63;;;0.16;100.00
20455;BME280;10386;54.314;10.022;2024-01-16T09:31:51;100634.06;;;0.20;100.00
20455;BME280;10386;54.314;10.022;2024-01-16T09:34:18;100624.88;;;0.28;100.00
20455;BME280;10386;54.314;10.022;2024-01-16T09:36:45;100631.31;;;0.49;100.00
20455;BME280;10386;54.314;10.022;2024-01-16T09:39:13;100621.94;;;0.62;100.00
20455;BME280;10386;54.314;10.022;2024-01-16T09:41:45;100626.38;;;0.63;100.00
20455;BME280;10386;54.314;10.022;2024-01-16T09:44:12;100622.44;;;0.73;100.00
20455;BME280;10386;54.314;10.022;2024-01-16T09:46:39;100620.72;;;0.96;100.00
20455;BME280;10386;54.314;10.022;2024-01-16T09:49:14;100611.13;;;0.91;100.00
20455;BME280;10386;54.314;10.022;2024-01-16T09:51:42;100611.44;;;0.82;100.00
20455;BME280;10386;54.314;10.022;2024-01-16T09:54:09;100616.38;;;0.94;100.00
20455;BME280;10386;54.314;10.022;2024-01-16T09:56:42;100614.00;;;1.09;100.00
20455;BME280;10386;54.314;10.022;2024-01-16T09:59:12;100610.94;;;1.20;100.00
20455;BME280;10386;54.314;10.022;2024-01-16T10:01:39;100606.59;;;1.40;100.00
20455;BME280;10386;54.314;10.022;2024-01-16T10:04:07;100613.28;;;1.51;100.00
20455;BME280;10386;54.314;10.022;2024-01-16T10:06:38;100619.03;;;1.64;100.00
20455;BME280;10386;54.314;10.022;2024-01-16T10:09:06;100623.34;;;1.68;100.00
20455;BME280;10386;54.314;10.022;2024-01-16T10:11:33;100622.22;;;1.50;100.00
20455;BME280;10386;54.314;10.022;2024-01-16T10:14:01;100626.59;;;1.53;100.00
20455;BME280;10386;54.314;10.022;2024-01-16T10:16:56;100635.09;;;1.64;100.00
20455;BME280;10386;54.314;10.022;2024-01-16T10:19:27;100635.00;;;1.65;100.00
20455;BME280;10386;54.314;10.022;2024-01-16T10:22:11;100633.03;;;1.93;100.00
20455;BME280;10386;54.314;10.022;2024-01-16T10:24:40;100631.41;;;1.89;100.00
20455;BME280;10386;54.314;10.022;2024-01-16T10:27:07;100633.06;;;1.92;100.00
20455;BME280;10386;54.314;10.022;2024-01-16T10:29:34;100630.22;;;1.96;100.00
20455;BME280;10386;54.314;10.022;2024-01-16T10:32:35;100635.47;;;2.21;100.00
20455;BME280;10386;54.314;10.022;2024-01-16T10:35:13;100634.91;;;2.34;100.00
20455;BME280;10386;54.314;10.022;2024-01-16T10:37:46;100643.81;;;2.13;100.00
20455;BME280;10386;54.314;10.022;2024-01-16T10:40:20;100639.34;;;1.91;100.00
20455;BME280;10386;54.314;10.022;2024-01-16T10:42:59;100645.59;;;1.91;100.00
20455;BME280;10386;54.314;10.022;2024-01-16T10:45:27;100649.94;;;1.72;100.00
20455;BME280;10386;54.314;10.022;2024-01-16T10:50:28;100650.84;;;1.71;100.00
20455;BME280;10386;54.314;10.022;2024-01-16T10:52:56;100655.28;;;1.94;100.00
20455;BME280;10386;54.314;10.022;2024-01-16T10:55:28;100655.31;;;2.15;100.00
20455;BME280;10386;54.314;10.022;2024-01-16T10:57:56;100649.03;;;2.16;100.00
20455;BME280;10386;54.314;10.022;2024-01-16T11:00:23;100656.75;;;2.02;100.00
20455;BME280;10386;54.314;10.022;2024-01-16T11:02:59;100651.84;;;2.13;100.00
20455;BME280;10386;54.314;10.022;2024-01-16T11:05:31;100660.72;;;1.92;100.00
20455;BME280;10386;54.314;10.022;2024-01-16T11:08:00;100662.09;;;2.02;100.00
20455;BME280;10386;54.314;10.022;2024-01-16T11:10:33;100654.16;;;1.78;100.00
20455;BME280;10386;54.314;10.022;2024-01-16T11:13:01;100614.25;;;1.72;100.00
20455;BME280;10386;54.314;10.022;2024-01-16T11:15:29;100596.34;;;1.74;100.00
20455;BME280;10386;54.314;10.022;2024-01-16T11:17:59;100596.63;;;1.89;100.00
20455;BME280;10386;54.314;10.022;2024-01-16T11:20:26;100601.09;;;2.10;100.00
20455;BME280;10386;54.314;10.022;2024-01-16T11:23:14;100593.19;;;2.29;100.00
20455;BME280;10386;54.314;10.022;2024-01-16T11:25:41;100597.78;;;2.25;100.00
20455;BME280;10386;54.314;10.022;2024-01-16T11:28:12;100597.72;;;2.05;100.00
20455;BME280;10386;54.314;10.022;2024-01-16T11:30:40;100607.22;;;2.14;100.00
20455;BME280;10386;54.314;10.022;2024-01-16T11:36:00;100624.44;;;1.85;100.00
20455;BME280;10386;54.314;10.022;2024-01-16T11:38:29;100628.16;;;1.81;100.00
20455;BME280;10386;54.314;10.022;2024-01-16T11:40:59;100629.50;;;1.70;100.00
20455;BME280;10386;54.314;10.022;2024-01-16T11:46:00;100632.28;;;1.44;100.00
20455;BME280;10386;54.314;10.022;2024-01-16T11:48:28;100632.75;;;1.55;100.00
20455;BME280;10386;54.314;10.022;2024-01-16T11:50:55;100634.53;;;1.54;100.00
20455;BME280;10386;54.314;10.022;2024-01-16T11:53:37;100627.47;;;1.76;100.00
20455;BME280;10386;54.314;10.022;2024-01-16T11:56:49;100637.41;;;1.73;100.00
20455;BME280;10386;54.314;10.022;2024-01-16T12:05:15;100637.06;;;2.03;100.00
20455;BME280;10386;54.314;10.022;2024-01-16T12:07:45;100637.19;;;2.00;100.00
20455;BME280;10386;54.314;10.022;2024-01-16T12:10:13;100637.75;;;2.08;100.00
20455;BME280;10386;54.314;10.022;2024-01-16T12:12:41;100629.03;;;2.03;100.00
20455;BME280;10386;54.314;10.022;2024-01-16T12:15:19;100633.84;;;2.17;100.00
20455;BME280;10386;54.314;10.022;2024-01-16T12:20:31;100624.06;;;1.94;100.00
20455;BME280;10386;54.314;10.022;2024-01-16T12:23:08;100624.50;;;2.05;100.00
20455;BME280;10386;54.314;10.022;2024-01-16T12:25:37;100634.31;;;1.83;100.00
20455;BME280;10386;54.314;10.022;2024-01-16T12:28:24;100638.88;;;1.81;100.00
20455;BME280;10386;54.314;10.022;2024-01-16T12:31:00;100634.56;;;1.77;100.00
20455;BME280;10386;54.314;10.022;2024-01-16T12:33:28;100628.16;;;1.81;100.00
20455;BME280;10386;54.314;10.022;2024-01-16T12:36:03;100632.81;;;1.76;100.00
20455;BME280;10386;54.314;10.022;2024-01-16T12:38:31;100623.84;;;1.77;100.00
20455;BME280;10386;54.314;10.022;2024-01-16T12:40:59;100628.53;;;1.72;100.00
20455;BME280;10386;54.314;10.022;2024-01-16T12:43:31;100631.78;;;1.80;100.00
20455;BME280;10386;54.314;10.022;2024-01-16T12:45:59;100627.22;;;1.82;100.00
20455;BME280;10386;54.314;10.022;2024-01-16T12:48:26;100622.94;;;1.78;100.00
20455;BME280;10386;54.314;10.022;2024-01-16T12:51:03;100622.59;;;1.86;100.00
20455;BME280;10386;54.314;10.022;2024-01-16T12:53:32;100614.66;;;1.84;100.00
20455;BME280;10386;54.314;10.022;2024-01-16T12:56:01;100620.81;;;1.86;100.00